createdAt,value
2019-02-21T00:02:31.288Z,88.00
2019-02-21T00:05:04.993Z,88.10
2019-02-21T00:07:45.525Z,88.20
2019-02-21T00:13:57.230Z,88.30
2019-02-21T00:16:34.238Z,88.20
2019-02-21T00:19:16.010Z,88.40
2019-02-21T00:24:43.014Z,88.50
2019-02-21T00:27:46.614Z,88.30
2019-02-21T00:30:21.729Z,88.20
2019-02-21T00:32:55.248Z,88.40
2019-02-21T00:35:39.345Z,88.30
2019-02-21T00:42:03.440Z,88.30
2019-02-21T00:44:35.134Z,88.10
2019-02-21T00:47:10.436Z,88.20
2019-02-21T00:49:53.431Z,88.30
2019-02-21T00:52:38.992Z,88.40
2019-02-21T00:55:12.889Z,88.40
2019-02-21T00:57:51.803Z,88.40
2019-02-21T01:00:46.554Z,88.40
2019-02-21T01:03:20.120Z,88.40
2019-02-21T01:05:55.576Z,88.50
2019-02-21T01:12:18.236Z,88.50
2019-02-21T01:14:55.899Z,88.40
2019-02-21T01:17:40.614Z,88.40
2019-02-21T01:20:11.714Z,88.40
2019-02-21T01:23:08.269Z,88.60
2019-02-21T01:25:50.891Z,88.50
2019-02-21T01:28:34.229Z,88.60
2019-02-21T01:34:51.167Z,88.70
2019-02-21T01:37:23.195Z,88.50
2019-02-21T01:40:07.330Z,88.60
2019-02-21T01:42:49.280Z,88.50
2019-02-21T01:45:20.589Z,88.60
2019-02-21T01:47:54.001Z,88.80
2019-02-21T01:50:46.571Z,88.70
2019-02-21T01:57:02.831Z,88.90
2019-02-21T02:03:12.142Z,88.90
2019-02-21T02:05:52.696Z,88.90
2019-02-21T02:08:29.198Z,89.00
2019-02-21T02:11:23.097Z,89.10
2019-02-21T02:14:07.589Z,89.30
2019-02-21T02:17:05.514Z,89.30
2019-02-21T02:19:52.363Z,89.40
2019-02-21T02:22:26.415Z,89.40
2019-02-21T02:24:56.349Z,89.60
2019-02-21T02:27:37.890Z,89.60
2019-02-21T02:30:13.514Z,89.60
2019-02-21T02:32:53.011Z,89.50
2019-02-21T02:35:34.139Z,89.40
2019-02-21T02:41:47.094Z,89.40
2019-02-21T02:44:26.922Z,89.40
2019-02-21T02:47:01.308Z,89.60
2019-02-21T02:49:41.484Z,89.70
2019-02-21T02:56:50.237Z,90.00
2019-02-21T02:59:40.329Z,90.00
2019-02-21T03:02:16.524Z,89.90
2019-02-21T03:05:04.028Z,89.90
2019-02-21T03:07:36.792Z,89.90
2019-02-21T03:10:13.083Z,89.70
2019-02-21T03:12:47.678Z,89.70
2019-02-21T03:15:29.691Z,89.70
2019-02-21T03:18:24.593Z,89.60
2019-02-21T03:21:08.954Z,89.70
2019-02-21T03:23:42.237Z,89.90
2019-02-21T03:26:15.954Z,89.90
2019-02-21T03:28:46.113Z,89.90
2019-02-21T03:35:12.791Z,90.00
2019-02-21T03:37:53.086Z,90.10
2019-02-21T03:40:30.500Z,90.10
2019-02-21T03:43:06.805Z,90.10
2019-02-21T03:45:56.010Z,90.10
2019-02-21T03:52:16.708Z,90.20
2019-02-21T03:55:00.436Z,90.10
2019-02-21T03:57:33.609Z,90.10
2019-02-21T04:00:13.381Z,90.20
2019-02-21T04:02:52.397Z,90.10
2019-02-21T04:09:15.598Z,90.20
2019-02-21T04:11:58.070Z,90.10
2019-02-21T04:14:45.753Z,90.20
2019-02-21T04:29:02.465Z,90.30
2019-02-21T04:35:45.029Z,90.30
2019-02-21T04:38:37.109Z,90.20
2019-02-21T04:41:12.259Z,90.30
2019-02-21T04:50:54.389Z,90.30
2019-02-21T04:57:12.481Z,90.30
2019-02-21T05:00:13.837Z,90.30
2019-02-21T05:03:50.471Z,90.30
2019-02-21T05:05:59.928Z,90.40
2019-02-21T05:08:40.505Z,90.40
2019-02-21T05:36:03.920Z,90.50
2019-02-21T05:39:15.904Z,90.50
2019-02-21T05:59:49.796Z,90.50
2019-02-21T06:55:40.202Z,90.60
2019-02-21T07:01:32.814Z,90.70
2019-02-21T07:04:02.191Z,90.60
2019-02-21T07:06:33.558Z,90.80
2019-02-21T07:12:50.685Z,90.80
2019-02-21T07:15:30.262Z,90.70
2019-02-21T07:18:48.032Z,90.70
2019-02-21T07:21:32.875Z,90.70
2019-02-21T07:26:53.174Z,90.80
2019-02-21T07:29:38.842Z,90.80
2019-02-21T07:40:19.518Z,90.90
2019-02-21T07:43:24.919Z,91.00
2019-02-21T07:46:00.271Z,91.00
2019-02-21T07:56:41.483Z,91.40
2019-02-21T07:59:02.866Z,91.40
2019-02-21T08:01:51.678Z,91.30
2019-02-21T08:04:52.436Z,91.20
2019-02-21T08:07:26.327Z,91.20
2019-02-21T08:10:05.208Z,91.10
2019-02-21T08:12:34.497Z,91.20
2019-02-21T08:15:03.840Z,91.10
2019-02-21T08:17:32.981Z,91.10
2019-02-21T08:23:50.352Z,91.10
2019-02-21T08:26:14.434Z,91.10
2019-02-21T08:32:29.490Z,91.30
2019-02-21T08:34:58.634Z,91.40
2019-02-21T08:37:28.091Z,91.30
2019-02-21T08:40:00.235Z,91.10
2019-02-21T08:42:29.583Z,91.10
2019-02-21T08:44:59.481Z,91.00
2019-02-21T08:47:31.466Z,90.90
2019-02-21T08:50:03.389Z,90.90
2019-02-21T08:56:37.523Z,90.80
2019-02-21T08:59:07.917Z,90.80
2019-02-21T09:01:40.923Z,90.70
2019-02-21T09:04:49.372Z,90.70
2019-02-21T09:10:10.668Z,90.80
2019-02-21T09:12:41.292Z,90.70
2019-02-21T09:15:13.474Z,90.80
2019-02-21T09:17:43.515Z,90.70
2019-02-21T09:20:12.991Z,90.70
2019-02-21T09:22:44.565Z,90.70
2019-02-21T09:25:14.085Z,90.60
2019-02-21T09:28:01.813Z,90.70
2019-02-21T09:30:31.310Z,90.70
2019-02-21T09:33:01.204Z,90.70
2019-02-21T09:41:46.439Z,90.70
2019-02-21T09:44:18.635Z,90.80
2019-02-21T09:46:48.405Z,90.80
2019-02-21T09:52:00.083Z,90.90
2019-02-21T09:58:17.832Z,90.90
2019-02-21T10:00:50.233Z,90.80
2019-02-21T10:07:24.272Z,90.80
2019-02-21T10:13:33.443Z,90.80
2019-02-21T10:16:04.818Z,90.80
2019-02-21T10:18:34.839Z,90.70
2019-02-21T10:21:08.148Z,90.70
2019-02-21T10:23:37.600Z,90.80
2019-02-21T10:26:06.600Z,90.70
2019-02-21T10:28:36.393Z,90.80
2019-02-21T10:31:11.590Z,91.10
2019-02-21T10:33:46.839Z,90.70
2019-02-21T10:36:11.525Z,90.80
2019-02-21T10:39:50.210Z,90.70
2019-02-21T10:46:00.758Z,90.70
2019-02-21T10:51:07.586Z,90.60
2019-02-21T10:54:13.052Z,90.50
2019-02-21T10:56:42.415Z,90.60
2019-02-21T10:59:11.678Z,90.60
2019-02-21T11:02:03.654Z,90.60
2019-02-21T11:04:59.547Z,90.60
2019-02-21T11:07:18.226Z,90.60
2019-02-21T11:17:21.249Z,90.70
2019-02-21T11:20:26.129Z,90.60
2019-02-21T11:23:00.898Z,90.60
2019-02-21T11:28:59.584Z,90.50
2019-02-21T11:38:05.146Z,90.50
2019-02-21T11:40:34.458Z,90.30
2019-02-21T11:43:03.721Z,89.60
2019-02-21T11:46:05.087Z,89.50
2019-02-21T11:48:39.351Z,89.50
2019-02-21T12:17:10.742Z,88.70
2019-02-21T12:19:46.196Z,88.70
2019-02-21T12:22:22.677Z,88.70
2019-02-21T12:25:37.728Z,88.80
2019-02-21T12:32:02.751Z,89.10
2019-02-21T12:34:38.349Z,89.10
2019-02-21T12:37:22.679Z,89.20
2019-02-21T12:43:07.300Z,89.10
2019-02-21T12:45:41.918Z,89.30
2019-02-21T12:48:20.207Z,89.00
2019-02-21T12:50:59.237Z,89.10
2019-02-21T12:57:10.782Z,89.00
2019-02-21T12:59:43.124Z,88.70
2019-02-21T13:02:13.393Z,88.70
2019-02-21T13:04:46.519Z,88.50
2019-02-21T13:07:26.641Z,88.40
2019-02-21T13:10:17.886Z,88.50
2019-02-21T13:23:50.916Z,88.40
2019-02-21T13:26:34.726Z,88.30
2019-02-21T13:29:25.043Z,88.50
2019-02-21T13:31:57.183Z,88.60
2019-02-21T13:38:09.624Z,88.10
2019-02-21T13:40:39.408Z,87.40
2019-02-21T13:43:08.794Z,87.80
2019-02-21T13:45:38.703Z,88.00
2019-02-21T13:48:08.440Z,87.70
2019-02-21T13:50:38.175Z,87.60
2019-02-21T13:53:07.694Z,87.70
2019-02-21T13:55:37.414Z,87.80
2019-02-21T14:01:49.439Z,87.50
2019-02-21T14:04:25.206Z,87.90
2019-02-21T14:06:55.043Z,87.80
2019-02-21T14:09:25.468Z,87.80
2019-02-21T14:11:59.449Z,88.00
2019-02-21T14:14:54.868Z,87.70
2019-02-21T14:21:04.921Z,87.60
2019-02-21T14:23:50.321Z,87.10
2019-02-21T14:26:22.457Z,86.90
2019-02-21T14:28:51.676Z,87.40
2019-02-21T14:31:21.770Z,87.50
2019-02-21T14:37:34.099Z,87.70
2019-02-21T14:40:05.141Z,88.00
2019-02-21T14:43:09.506Z,88.00
2019-02-21T14:46:20.180Z,88.10
2019-02-21T14:49:29.147Z,88.00
2019-02-21T14:52:06.207Z,88.10
2019-02-21T14:54:38.123Z,88.10
2019-02-21T14:59:50.323Z,87.60
2019-02-21T15:06:02.767Z,87.70
2019-02-21T15:08:34.907Z,87.60
2019-02-21T15:11:04.514Z,87.40
2019-02-21T15:13:56.510Z,87.50
2019-02-21T15:20:07.149Z,88.00
2019-02-21T15:27:07.908Z,87.90
2019-02-21T15:29:28.125Z,88.00
2019-02-21T15:36:15.810Z,88.10
2019-02-21T15:38:45.370Z,88.00
2019-02-21T15:45:23.035Z,88.30
2019-02-21T15:47:53.408Z,88.20
2019-02-21T15:50:22.584Z,88.00
2019-02-21T15:52:52.214Z,88.00
2019-02-21T15:55:21.502Z,88.00
2019-02-21T15:58:00.558Z,87.80
2019-02-21T16:00:22.575Z,87.90
2019-02-21T16:02:53.625Z,87.90
2019-02-21T16:05:24.883Z,87.70
2019-02-21T16:07:54.225Z,87.90
2019-02-21T16:10:23.365Z,87.80
2019-02-21T16:12:53.279Z,87.90
2019-02-21T16:15:22.868Z,87.90
2019-02-21T16:17:54.547Z,88.20
2019-02-21T16:20:26.139Z,88.30
2019-02-21T16:22:55.685Z,88.40
2019-02-21T16:25:26.975Z,88.30
2019-02-21T16:27:56.069Z,88.50
2019-02-21T16:30:25.486Z,88.50
2019-02-21T16:33:06.972Z,88.40
2019-02-21T16:35:36.251Z,88.60
2019-02-21T16:38:05.824Z,88.60
2019-02-21T16:40:35.416Z,88.70
2019-02-21T16:43:30.992Z,88.80
2019-02-21T16:46:07.953Z,88.70
2019-02-21T16:49:02.214Z,88.70
2019-02-21T16:51:31.754Z,88.90
2019-02-21T16:54:01.355Z,88.90
2019-02-21T16:56:32.364Z,88.90
2019-02-21T16:59:02.450Z,89.00
2019-02-21T17:19:40.167Z,89.30
2019-02-21T17:31:59.607Z,89.60
2019-02-21T17:34:30.071Z,89.50
2019-02-21T17:37:02.510Z,89.60
2019-02-21T17:39:33.137Z,89.60
2019-02-21T17:45:43.261Z,89.90
2019-02-21T17:48:13.092Z,89.80
2019-02-21T17:54:27.796Z,90.00
2019-02-21T17:57:41.810Z,90.00
2019-02-21T18:03:46.362Z,90.10
2019-02-21T18:06:42.233Z,90.10
2019-02-21T18:12:51.766Z,90.20
2019-02-21T18:15:35.187Z,90.60
2019-02-21T18:18:12.056Z,90.20
2019-02-21T18:20:41.941Z,90.70
2019-02-21T18:27:34.118Z,90.80
2019-02-21T18:30:10.774Z,90.70
2019-02-21T18:33:19.972Z,90.80
2019-02-21T18:35:49.885Z,90.90
2019-02-21T18:52:44.007Z,90.90
2019-02-21T18:55:13.662Z,90.90
2019-02-21T19:03:57.227Z,90.90
2019-02-21T19:06:33.504Z,91.00
2019-02-21T19:09:05.383Z,91.10
2019-02-21T19:11:59.416Z,91.10
